Urucui, Brazil
Current Conditions -  °F | °C
As of 1:00 AM on Wednesday 22 Oct 2014 (Local Time) from SBTE Reporting Station
Thunderstorm Thunderstorm  
Wind Chill: 77°   Ceiling: 8000
Heat Index: 78°   Visibility: 3mi
Dew Point: 77°   Wind: 12mph
Humidity: 100%   Direction: 160°SSE
Pressure: NA   Gusts: NA
Location:  7.23°S, 44.56°W
Report Text: SBTE 220400Z 16010KT 5000 TSRA SCT006 FEW030CB OVC080 25/25 Q1012
Loading
Personal Weather Stations






























Interactive Weather Map
Tropical Storm Tracking
New forecast layout! Learn more

10-Day Weather Forecast

Advertisements
Track Severe Weather on mobile